createdAt,value
2018-03-19T00:01:18.858Z,5.28
2018-03-19T00:03:46.356Z,11.05
2018-03-19T00:06:13.863Z,3.33
2018-03-19T00:08:41.362Z,5.85
2018-03-19T00:11:08.855Z,3.78
2018-03-19T00:13:36.766Z,3.60
2018-03-19T00:16:04.380Z,6.68
2018-03-19T00:18:31.904Z,4.30
2018-03-19T00:20:59.401Z,5.40
2018-03-19T00:23:26.907Z,2.10
2018-03-19T00:25:54.462Z,4.35
2018-03-19T00:28:22.109Z,5.43
2018-03-19T00:30:49.604Z,4.35
2018-03-19T00:33:17.105Z,5.68
2018-03-19T00:35:44.607Z,5.05
2018-03-19T00:38:12.138Z,5.32
2018-03-19T00:40:39.643Z,5.20
2018-03-19T00:43:07.218Z,6.75
2018-03-19T00:45:35.111Z,6.25
2018-03-19T00:48:02.611Z,6.07
2018-03-19T00:50:30.125Z,4.12
2018-03-19T00:52:57.630Z,5.20
2018-03-19T00:55:25.155Z,4.18
2018-03-19T00:57:52.674Z,4.55
2018-03-19T01:00:20.174Z,4.95
2018-03-19T01:02:47.680Z,3.67
2018-03-19T01:05:15.563Z,4.82
2018-03-19T01:07:43.479Z,5.75
2018-03-19T01:10:11.015Z,4.35
2018-03-19T01:12:38.565Z,5.60
2018-03-19T01:15:06.065Z,3.60
2018-03-19T01:17:34.861Z,5.55
2018-03-19T01:20:02.902Z,3.80
2018-03-19T01:22:30.446Z,4.82
2018-03-19T01:24:57.984Z,6.07
2018-03-19T01:27:25.510Z,3.20
2018-03-19T01:29:53.022Z,3.67
2018-03-19T01:32:20.573Z,4.28
2018-03-19T01:34:48.097Z,3.72
2018-03-19T01:37:16.002Z,4.70
2018-03-19T01:39:43.492Z,6.28
2018-03-19T01:42:11.096Z,2.03
2018-03-19T01:44:38.667Z,4.78
2018-03-19T01:47:07.059Z,5.65
2018-03-19T01:49:34.934Z,5.55
2018-03-19T01:52:02.506Z,4.45
2018-03-19T01:54:30.068Z,9.15
2018-03-19T01:56:57.610Z,5.65
2018-03-19T01:59:25.096Z,6.45
2018-03-19T02:01:52.651Z,4.45
2018-03-19T02:04:20.176Z,6.62
2018-03-19T02:06:47.667Z,5.95
2018-03-19T02:09:15.190Z,5.00
2018-03-19T02:11:42.763Z,4.82
2018-03-19T02:14:10.712Z,6.40
2018-03-19T02:16:38.229Z,3.30
2018-03-19T02:19:06.116Z,6.72
2018-03-19T02:21:33.622Z,6.07
2018-03-19T02:24:01.117Z,6.05
2018-03-19T02:26:29.016Z,3.03
2018-03-19T02:28:56.506Z,3.15
2018-03-19T02:31:24.064Z,4.62
2018-03-19T02:33:51.531Z,7.32
2018-03-19T02:36:19.021Z,8.48
2018-03-19T02:38:46.517Z,3.97
2018-03-19T02:41:14.028Z,4.75
2018-03-19T02:43:41.909Z,3.53
2018-03-19T02:46:09.396Z,4.07
2018-03-19T02:48:36.895Z,6.90
2018-03-19T02:51:04.790Z,5.28
2018-03-19T02:53:32.299Z,6.07
2018-03-19T02:55:59.795Z,4.18
2018-03-19T02:58:27.279Z,6.72
2018-03-19T03:00:54.779Z,3.87
2018-03-19T03:03:22.261Z,5.03
2018-03-19T03:05:50.171Z,4.40
2018-03-19T03:08:17.681Z,5.55
2018-03-19T03:10:45.579Z,5.85
2018-03-19T03:13:13.085Z,4.12
2018-03-19T03:15:40.592Z,2.95
2018-03-19T03:18:08.108Z,4.10
2018-03-19T03:20:36.006Z,3.87
2018-03-19T03:23:03.509Z,8.13
2018-03-19T03:25:31.054Z,5.35
2018-03-19T03:27:58.550Z,12.55
2018-03-19T03:30:26.071Z,7.87
2018-03-19T03:32:53.564Z,5.07
2018-03-19T03:35:21.063Z,6.37
2018-03-19T03:37:48.567Z,3.85
2018-03-19T03:40:16.063Z,4.12
2018-03-19T03:42:43.592Z,2.95
2018-03-19T03:45:11.520Z,4.03
2018-03-19T03:47:39.025Z,5.05
2018-03-19T03:50:06.524Z,3.58
2018-03-19T03:52:34.041Z,6.43
2018-03-19T03:55:01.544Z,6.78
2018-03-19T03:57:29.057Z,2.75
2018-03-19T03:59:56.586Z,3.92
2018-03-19T04:02:24.075Z,5.28
2018-03-19T04:04:51.956Z,6.55
2018-03-19T04:07:19.469Z,4.37
2018-03-19T04:09:47.359Z,8.80
2018-03-19T04:12:14.876Z,5.57
2018-03-19T04:14:42.364Z,5.65
2018-03-19T04:17:09.854Z,6.82
2018-03-19T04:19:37.372Z,6.15
2018-03-19T04:22:04.877Z,5.20
2018-03-19T04:24:32.376Z,5.90
2018-03-19T04:26:59.867Z,5.12
2018-03-19T04:29:27.374Z,5.50
2018-03-19T04:31:54.882Z,4.95
2018-03-19T04:34:22.374Z,9.48
2018-03-19T04:36:49.882Z,6.45
2018-03-19T04:39:17.780Z,2.62
2018-03-19T04:41:45.281Z,5.85
2018-03-19T04:44:12.774Z,4.28
2018-03-19T04:46:40.283Z,5.25
2018-03-19T04:49:07.821Z,4.68
2018-03-19T04:51:35.316Z,4.43
2018-03-19T04:54:02.813Z,4.60
2018-03-19T04:56:30.329Z,3.35
2018-03-19T04:58:57.824Z,4.93
2018-03-19T05:01:25.332Z,4.40
2018-03-19T05:03:52.820Z,4.40
2018-03-19T05:06:20.346Z,8.77
2018-03-19T05:08:47.836Z,2.75
2018-03-19T05:11:15.378Z,5.05
2018-03-19T05:13:42.848Z,7.82
2018-03-19T05:16:10.752Z,6.03
2018-03-19T05:18:38.261Z,8.48
2018-03-19T05:21:05.755Z,6.87
2018-03-19T05:23:33.275Z,7.28
2018-03-19T05:26:00.766Z,8.00
2018-03-19T05:28:28.302Z,8.00
2018-03-19T05:30:56.215Z,5.65
2018-03-19T05:33:23.716Z,3.35
2018-03-19T05:35:51.232Z,8.60
2018-03-19T05:38:18.745Z,7.18
2018-03-19T05:40:46.627Z,9.38
2018-03-19T05:43:14.143Z,3.92
2018-03-19T05:45:41.638Z,9.20
2018-03-19T05:48:09.165Z,3.55
2018-03-19T05:50:36.726Z,7.65
2018-03-19T05:53:04.292Z,3.97
2018-03-19T05:55:32.788Z,6.28
2018-03-19T05:58:00.315Z,6.37
2018-03-19T06:00:28.683Z,4.50
2018-03-19T06:02:56.169Z,8.38
2018-03-19T06:05:24.077Z,4.68
2018-03-19T06:07:51.595Z,9.90
2018-03-19T06:10:19.496Z,5.62
2018-03-19T06:12:47.024Z,6.32
2018-03-19T06:15:14.911Z,3.33
2018-03-19T06:17:42.401Z,8.93
2018-03-19T06:20:09.908Z,3.33
2018-03-19T06:22:37.830Z,3.80
2018-03-19T06:25:05.320Z,3.60
2018-03-19T06:27:33.220Z,7.53
2018-03-19T06:30:00.732Z,4.03
2018-03-19T06:32:28.216Z,4.35
2018-03-19T06:34:55.736Z,4.10
2018-03-19T06:37:24.804Z,5.40
2018-03-19T06:39:52.291Z,5.82
2018-03-19T06:42:19.779Z,7.40
2018-03-19T06:44:47.655Z,4.35
2018-03-19T06:47:15.206Z,9.63
2018-03-19T06:49:42.687Z,5.28
2018-03-19T06:52:10.171Z,4.18
2018-03-19T06:54:37.667Z,5.32
2018-03-19T06:57:05.547Z,5.62
2018-03-19T06:59:33.168Z,5.53
2018-03-19T07:02:00.653Z,5.55
2018-03-19T07:04:28.575Z,5.65
2018-03-19T07:06:56.087Z,5.90
2018-03-19T07:09:24.588Z,7.75
2018-03-19T07:11:52.407Z,5.57
2018-03-19T07:14:19.910Z,7.20
2018-03-19T07:16:47.403Z,15.57
2018-03-19T07:19:14.892Z,4.62
2018-03-19T07:21:42.800Z,5.78
2018-03-19T07:24:10.288Z,7.93
2018-03-19T07:26:38.668Z,4.93
2018-03-19T07:29:06.165Z,5.37
2018-03-19T07:31:33.644Z,5.05
2018-03-19T07:34:02.301Z,5.93
2018-03-19T07:36:30.198Z,5.05
2018-03-19T07:38:57.676Z,4.62
2018-03-19T07:41:25.163Z,5.03
2018-03-19T07:43:53.068Z,5.45
2018-03-19T07:46:20.578Z,6.43
2018-03-19T07:48:48.064Z,7.45
2018-03-19T07:51:15.577Z,9.07
2018-03-19T07:53:43.062Z,5.65
2018-03-19T07:56:10.935Z,7.47
2018-03-19T07:58:38.828Z,4.80
2018-03-19T08:01:06.308Z,5.68
2018-03-19T08:03:33.803Z,11.10
2018-03-19T08:06:01.696Z,5.28
2018-03-19T08:08:29.196Z,4.97
2018-03-19T08:10:56.682Z,4.65
2018-03-19T08:13:24.171Z,8.02
2018-03-19T08:15:51.665Z,4.12
2018-03-19T08:18:19.146Z,7.87
2018-03-19T08:20:46.635Z,7.07
2018-03-19T08:23:14.115Z,7.78
2018-03-19T08:25:41.604Z,4.90
2018-03-19T08:28:09.655Z,4.18
2018-03-19T08:30:37.134Z,8.43
2018-03-19T08:33:04.640Z,10.32
2018-03-19T08:35:32.304Z,10.60
2018-03-19T08:37:59.787Z,5.50
2018-03-19T08:40:27.286Z,6.18
2018-03-19T08:42:55.183Z,4.62
2018-03-19T08:45:22.686Z,7.10
2018-03-19T08:47:50.203Z,8.98
2018-03-19T08:50:17.694Z,6.45
2018-03-19T08:52:45.183Z,6.28
2018-03-19T08:55:13.075Z,7.72
2018-03-19T08:57:40.563Z,6.40
2018-03-19T09:00:09.364Z,7.85
2018-03-19T09:02:36.867Z,5.12
2018-03-19T09:05:05.568Z,6.28
2018-03-19T09:07:33.175Z,6.03
2018-03-19T09:10:00.698Z,5.22
2018-03-19T09:15:02.170Z,9.20
2018-03-19T09:17:29.703Z,4.72
2018-03-19T09:19:57.209Z,5.18
2018-03-19T09:22:24.696Z,7.68
2018-03-19T09:24:52.584Z,5.10
2018-03-19T09:27:20.102Z,4.55
2018-03-19T09:29:47.595Z,6.10
2018-03-19T09:32:15.078Z,5.68
2018-03-19T09:34:42.563Z,5.95
2018-03-19T09:37:10.077Z,5.40
2018-03-19T09:39:38.487Z,3.70
2018-03-19T09:42:05.991Z,6.45
2018-03-19T09:44:33.875Z,5.37
2018-03-19T09:47:01.348Z,5.25
2018-03-19T09:49:28.868Z,4.87
2018-03-19T09:51:56.804Z,5.50
2018-03-19T09:54:24.291Z,3.20
2018-03-19T09:56:52.208Z,3.83
2018-03-19T09:59:19.719Z,5.87
2018-03-19T10:01:47.595Z,6.10
2018-03-19T10:04:15.083Z,6.37
2018-03-19T10:06:42.601Z,6.80
2018-03-19T10:09:10.980Z,6.53
2018-03-19T10:11:38.500Z,7.00
2018-03-19T10:14:06.001Z,5.40
2018-03-19T10:16:33.524Z,3.87
2018-03-19T10:19:01.007Z,7.37
2018-03-19T10:21:28.506Z,5.12
2018-03-19T10:23:56.003Z,7.80
2018-03-19T10:26:24.004Z,7.53
2018-03-19T10:28:51.531Z,8.10
2018-03-19T10:31:19.036Z,8.05
2018-03-19T10:33:46.551Z,5.68
2018-03-19T10:36:14.067Z,7.15
2018-03-19T10:38:41.601Z,4.10
2018-03-19T10:41:09.062Z,8.30
2018-03-19T10:43:36.880Z,3.22
2018-03-19T10:46:04.775Z,6.30
2018-03-19T10:48:32.285Z,6.82
2018-03-19T10:50:59.777Z,5.22
2018-03-19T10:53:27.273Z,4.95
2018-03-19T10:55:54.787Z,6.97
2018-03-19T10:58:22.295Z,7.62
2018-03-19T11:00:49.807Z,8.73
2018-03-19T11:03:23.079Z,5.50
2018-03-19T11:06:00.540Z,7.10
2018-03-19T11:08:33.991Z,6.07
2018-03-19T11:11:01.520Z,6.53
2018-03-19T11:13:29.043Z,7.50
2018-03-19T11:15:56.535Z,5.45
2018-03-19T11:18:24.431Z,6.97
2018-03-19T11:20:51.943Z,5.50
2018-03-19T11:23:19.467Z,9.80
2018-03-19T11:25:46.988Z,6.40
2018-03-19T11:28:14.875Z,8.13
2018-03-19T11:30:42.400Z,9.73
2018-03-19T11:33:09.895Z,6.12
2018-03-19T11:35:37.391Z,7.62
2018-03-19T11:38:04.931Z,8.73
2018-03-19T11:40:32.452Z,5.68
2018-03-19T11:42:59.962Z,8.32
2018-03-19T11:45:27.459Z,7.90
2018-03-19T11:47:55.343Z,5.83
2018-03-19T11:50:22.846Z,5.60
2018-03-19T11:52:50.376Z,8.05
2018-03-19T11:55:17.839Z,6.60
2018-03-19T11:57:45.350Z,8.50
2018-03-19T12:00:13.242Z,7.55
2018-03-19T12:02:40.732Z,7.37
2018-03-19T12:05:08.243Z,7.62
2018-03-19T12:07:35.748Z,7.70
2018-03-19T12:10:03.249Z,6.97
2018-03-19T12:12:31.150Z,7.30
2018-03-19T12:14:58.634Z,5.93
2018-03-19T12:17:26.136Z,7.93
2018-03-19T12:19:53.627Z,6.55
2018-03-19T12:22:21.171Z,6.33
2018-03-19T12:24:48.674Z,5.50
2018-03-19T12:27:16.172Z,6.70
2018-03-19T12:29:43.682Z,5.43
2018-03-19T12:32:11.181Z,9.03
2018-03-19T12:34:39.061Z,7.03
2018-03-19T12:37:06.564Z,4.73
2018-03-19T12:39:34.056Z,3.70
2018-03-19T12:42:01.948Z,4.27
2018-03-19T12:44:29.448Z,5.17
2018-03-19T12:46:56.945Z,4.53
2018-03-19T12:49:24.817Z,3.77
2018-03-19T12:51:52.307Z,3.33
2018-03-19T12:54:19.797Z,6.77
2018-03-19T12:56:47.708Z,5.07
2018-03-19T12:59:15.203Z,4.93
2018-03-19T13:01:42.698Z,4.97
2018-03-19T13:04:10.578Z,5.97
2018-03-19T13:06:38.091Z,6.00
2018-03-19T13:09:05.579Z,4.43
2018-03-19T13:11:33.079Z,4.37
2018-03-19T13:14:00.580Z,5.67
2018-03-19T13:16:28.067Z,4.17
2018-03-19T13:18:55.571Z,3.37
2018-03-19T13:21:27.726Z,6.10
2018-03-19T13:23:55.240Z,3.50
2018-03-19T13:26:22.735Z,3.20
2018-03-19T13:28:50.218Z,3.33
2018-03-19T13:31:17.711Z,4.87
2018-03-19T13:33:45.342Z,6.77
2018-03-19T13:36:13.239Z,5.40
2018-03-19T13:38:41.102Z,4.60
2018-03-19T13:41:08.988Z,4.93
2018-03-19T13:43:36.479Z,5.20
2018-03-19T13:46:03.967Z,5.40
2018-03-19T13:48:31.866Z,5.87
2018-03-19T13:50:59.382Z,7.63
2018-03-19T13:53:26.896Z,4.77
2018-03-19T13:55:54.491Z,4.27
2018-03-19T13:58:22.026Z,4.57
2018-03-19T14:00:49.523Z,4.10
2018-03-19T14:03:17.023Z,7.40
2018-03-19T14:05:44.543Z,4.13
2018-03-19T14:08:12.730Z,6.03
2018-03-19T14:10:40.966Z,4.10
2018-03-19T14:13:09.385Z,7.47
2018-03-19T14:15:36.871Z,4.60
2018-03-19T14:18:04.362Z,3.67
2018-03-19T14:20:31.848Z,4.40
2018-03-19T14:23:00.280Z,5.50
2018-03-19T14:25:28.309Z,5.03
2018-03-19T14:27:55.928Z,5.10
2018-03-19T14:30:23.329Z,4.67
2018-03-19T14:32:50.927Z,4.23
2018-03-19T14:35:18.410Z,5.50
2018-03-19T14:37:45.917Z,3.40
2018-03-19T14:40:13.435Z,4.00
2018-03-19T14:42:41.317Z,3.80
2018-03-19T14:45:08.816Z,3.23
2018-03-19T14:47:36.313Z,5.03
2018-03-19T14:50:03.819Z,3.73
2018-03-19T14:52:32.104Z,4.83
2018-03-19T14:54:59.628Z,5.40
2018-03-19T14:57:27.115Z,4.47
2018-03-19T14:59:54.600Z,5.30
2018-03-19T15:02:22.132Z,3.93
2018-03-19T15:04:49.689Z,4.63
2018-03-19T15:07:17.187Z,4.40
2018-03-19T15:09:45.844Z,3.90
2018-03-19T15:12:13.440Z,5.13
2018-03-19T15:14:42.129Z,4.43
2018-03-19T15:17:10.004Z,4.20
2018-03-19T15:19:37.548Z,4.53
2018-03-19T15:22:05.028Z,4.07
2018-03-19T15:24:32.526Z,3.73
2018-03-19T15:27:02.015Z,5.30
2018-03-19T15:29:29.566Z,4.90
2018-03-19T15:31:57.048Z,4.73
2018-03-19T15:34:24.543Z,4.13
2018-03-19T15:36:52.456Z,6.87
2018-03-19T15:39:19.951Z,6.00
2018-03-19T15:41:47.868Z,12.03
2018-03-19T15:44:15.541Z,3.97
2018-03-19T15:46:43.315Z,4.17
2018-03-19T15:49:10.792Z,4.20
2018-03-19T15:51:38.555Z,4.87
2018-03-19T15:54:06.046Z,4.40
2018-03-19T15:56:33.592Z,4.17
2018-03-19T15:59:01.480Z,3.97
2018-03-19T16:01:28.986Z,5.00
2018-03-19T16:03:56.490Z,6.83
2018-03-19T16:06:24.004Z,4.87
2018-03-19T16:08:51.528Z,3.50
2018-03-19T16:11:19.031Z,4.67
2018-03-19T16:13:46.572Z,4.03
2018-03-19T16:16:14.068Z,5.30
2018-03-19T16:18:41.574Z,5.13
2018-03-19T16:21:09.101Z,4.50
2018-03-19T16:23:36.594Z,4.13
2018-03-19T16:26:04.084Z,5.47
2018-03-19T16:28:31.972Z,4.90
2018-03-19T16:30:59.536Z,4.50
2018-03-19T16:33:27.043Z,4.63
2018-03-19T16:35:54.564Z,5.00
2018-03-19T16:38:22.096Z,4.33
2018-03-19T16:40:49.589Z,5.37
2018-03-19T16:43:17.078Z,5.13
2018-03-19T16:45:44.582Z,4.37
2018-03-19T16:48:13.280Z,5.33
2018-03-19T16:50:40.958Z,4.37
2018-03-19T16:53:08.519Z,5.83
2018-03-19T16:55:36.011Z,4.80
2018-03-19T16:58:03.907Z,6.97
2018-03-19T17:00:32.429Z,5.83
2018-03-19T17:02:59.919Z,6.13
2018-03-19T17:05:27.453Z,6.87
2018-03-19T17:07:54.943Z,6.03
2018-03-19T17:10:22.445Z,5.27
2018-03-19T17:12:49.962Z,5.43
2018-03-19T17:15:17.854Z,5.53
2018-03-19T17:17:45.357Z,5.90
2018-03-19T17:20:12.886Z,6.47
2018-03-19T17:22:41.388Z,7.00
2018-03-19T17:25:08.899Z,5.57
2018-03-19T17:27:36.399Z,6.33
2018-03-19T17:30:05.710Z,8.00
2018-03-19T17:32:33.336Z,9.27
2018-03-19T17:35:00.876Z,7.23
2018-03-19T17:37:28.400Z,5.97
2018-03-19T17:39:55.931Z,6.95
2018-03-19T17:42:23.439Z,5.85
2018-03-19T17:44:50.979Z,7.93
2018-03-19T17:47:18.982Z,7.00
2018-03-19T17:49:46.519Z,6.60
2018-03-19T17:52:14.035Z,11.90
2018-03-19T17:54:43.951Z,13.65
2018-03-19T17:57:12.430Z,8.65
2018-03-19T17:59:40.489Z,7.47
2018-03-19T18:02:08.001Z,8.40
2018-03-19T18:04:35.611Z,8.57
2018-03-19T18:07:03.088Z,8.07
2018-03-19T18:09:31.030Z,7.25
2018-03-19T18:11:58.976Z,7.90
2018-03-19T18:14:26.656Z,41.58
2018-03-19T18:16:58.231Z,18.23
2018-03-19T18:19:26.332Z,10.25
2018-03-19T18:21:53.960Z,9.40
2018-03-19T18:24:39.721Z,8.80
2018-03-19T18:27:07.236Z,11.23
2018-03-19T18:29:35.147Z,7.70
2018-03-19T18:32:02.691Z,9.82
2018-03-19T18:34:30.185Z,10.30
2018-03-19T18:36:57.756Z,9.07
2018-03-19T18:39:25.686Z,10.32
2018-03-19T18:41:53.206Z,10.30
2018-03-19T18:44:20.771Z,11.00
2018-03-19T18:46:48.287Z,10.60
2018-03-19T18:49:16.766Z,10.75
2018-03-19T18:51:44.290Z,12.02
2018-03-19T18:54:11.800Z,10.23
2018-03-19T18:56:39.727Z,11.15
2018-03-19T18:59:07.288Z,11.02
2018-03-19T19:01:34.855Z,11.55
2018-03-19T19:04:02.407Z,12.15
2018-03-19T19:06:29.894Z,9.10
2018-03-19T19:08:57.392Z,9.45
2018-03-19T19:11:24.904Z,9.48
2018-03-19T19:13:52.810Z,8.75
2018-03-19T19:16:20.330Z,7.93
2018-03-19T19:18:47.828Z,8.15
2018-03-19T19:21:15.327Z,8.88
2018-03-19T19:23:42.822Z,9.35
2018-03-19T19:26:10.369Z,14.40
2018-03-19T19:28:39.468Z,20.45
2018-03-19T19:31:08.463Z,13.65
2018-03-19T19:33:35.957Z,15.82
2018-03-19T19:36:03.452Z,15.23
2018-03-19T19:38:30.991Z,14.10
2018-03-19T19:40:59.553Z,13.00
2018-03-19T19:43:27.044Z,11.05
2018-03-19T19:45:54.535Z,13.32
2018-03-19T19:48:22.483Z,11.52
2018-03-19T19:50:50.055Z,12.60
2018-03-19T19:53:17.955Z,11.40
2018-03-19T19:55:45.521Z,13.10
2018-03-19T19:58:13.015Z,15.65
2018-03-19T20:00:40.524Z,15.93
2018-03-19T20:03:08.158Z,11.98
2018-03-19T20:05:36.065Z,15.10
2018-03-19T20:08:03.626Z,12.93
2018-03-19T20:10:31.139Z,12.77
2018-03-19T20:12:59.072Z,15.63
2018-03-19T20:15:26.576Z,14.05
2018-03-19T20:17:54.127Z,12.75
2018-03-19T20:20:22.064Z,11.88
2018-03-19T20:22:49.555Z,17.83
2018-03-19T20:25:17.064Z,13.30
2018-03-19T20:27:44.566Z,18.05
2018-03-19T20:30:12.491Z,14.68
2018-03-19T20:32:39.995Z,16.27
2018-03-19T20:35:07.546Z,14.70
2018-03-19T20:37:35.130Z,14.87
2018-03-19T20:40:04.233Z,19.05
2018-03-19T20:42:31.811Z,30.08
2018-03-19T20:44:59.343Z,33.20
2018-03-19T20:47:26.851Z,16.50
2018-03-19T20:49:54.379Z,12.77
2018-03-19T20:52:22.741Z,14.63
2018-03-19T20:54:50.290Z,12.68
2018-03-19T20:57:17.787Z,12.32
2018-03-19T20:59:45.298Z,13.82
2018-03-19T21:02:13.621Z,13.60
2018-03-19T21:04:41.541Z,12.80
2018-03-19T21:07:09.985Z,13.98
2018-03-19T21:09:37.508Z,12.05
2018-03-19T21:12:05.023Z,16.50
2018-03-19T21:14:32.928Z,15.60
2018-03-19T21:17:00.428Z,16.00
2018-03-19T21:19:27.930Z,25.10
2018-03-19T21:21:55.431Z,19.20
2018-03-19T21:24:23.272Z,19.45
2018-03-19T21:26:53.086Z,14.30
2018-03-19T21:29:20.598Z,15.65
2018-03-19T21:31:49.424Z,15.77
2018-03-19T21:34:16.935Z,15.82
2018-03-19T21:36:45.303Z,13.43
2018-03-19T21:39:12.819Z,12.55
2018-03-19T21:41:40.362Z,12.57
2018-03-19T21:44:07.861Z,15.05
2018-03-19T21:46:35.367Z,11.70
2018-03-19T21:49:03.323Z,15.68
2018-03-19T21:51:30.875Z,12.70
2018-03-19T21:53:58.778Z,16.40
2018-03-19T21:56:27.305Z,13.50
2018-03-19T21:58:55.254Z,15.55
2018-03-19T22:01:22.755Z,15.27
2018-03-19T22:03:50.293Z,12.50
2018-03-19T22:06:17.823Z,13.45
2018-03-19T22:08:45.335Z,16.00
2018-03-19T22:11:12.841Z,13.75
2018-03-19T22:13:40.338Z,11.88
2018-03-19T22:16:08.238Z,12.60
2018-03-19T22:18:35.752Z,11.77
2018-03-19T22:21:03.267Z,14.73
2018-03-19T22:23:30.869Z,14.55
2018-03-19T22:25:58.434Z,12.95
2018-03-19T22:28:26.635Z,16.60
2018-03-19T22:30:54.166Z,12.82
2018-03-19T22:33:21.983Z,14.23
2018-03-19T22:35:49.631Z,13.48
2018-03-19T22:38:17.179Z,14.10
2018-03-19T22:40:44.786Z,13.52
2018-03-19T22:43:12.466Z,12.95
2018-03-19T22:45:40.584Z,11.55
2018-03-19T22:48:08.318Z,12.60
2018-03-19T22:50:35.961Z,12.43
2018-03-19T22:53:03.528Z,11.23
2018-03-19T22:55:31.230Z,12.23
2018-03-19T22:57:58.894Z,12.43
2018-03-19T23:00:26.459Z,14.35
2018-03-19T23:02:53.978Z,15.07
2018-03-19T23:05:22.844Z,14.80
2018-03-19T23:07:50.762Z,14.30
2018-03-19T23:10:18.288Z,15.32
2018-03-19T23:12:46.198Z,12.88
2018-03-19T23:15:13.729Z,12.95
2018-03-19T23:17:41.239Z,13.60
2018-03-19T23:20:08.736Z,14.25
2018-03-19T23:22:36.247Z,11.52
2018-03-19T23:25:03.767Z,15.23
2018-03-19T23:27:31.300Z,15.82
2018-03-19T23:29:59.200Z,15.25
2018-03-19T23:32:26.698Z,14.65
2018-03-19T23:34:54.199Z,12.88
2018-03-19T23:37:21.731Z,15.88
2018-03-19T23:39:49.652Z,15.40
2018-03-19T23:42:17.183Z,12.68
2018-03-19T23:44:44.734Z,15.00
2018-03-19T23:47:12.219Z,12.68
2018-03-19T23:49:39.714Z,13.88
2018-03-19T23:52:07.234Z,13.27
2018-03-19T23:54:34.760Z,13.75
2018-03-19T23:57:02.260Z,13.62
2018-03-19T23:59:29.874Z,13.52
